You are listening to:
EPBY Tower - Bydgoszcz, Poland

EPBY 161100Z 19008KT CAVOK 05/02 Q1012

If stream does not start automatically press the play button